»·PEaware :: QXE2633 KPDX-KSMF

QXE2633 :: KPDX-KSMF

FLIGHT INFORMATION

Flight Status: Arrived
Operator:
Horizon Air
More flights by this operator :: More flights under this callsign
Pilot: Matt B. (19713)
Aircraft: DEHAVILLAND DASH 8 400
(DH8D)
More flights by this aircraft type
Origin: KPDX Portland Intl
United States
Destination: KSMF Sacramento Intl
United States
More flights between these airports :: More routes between these airports
Route: PTLD1 MRTEN J189 LMT TUDOR2
File this flight plan on PilotEdge
Remarks: Default Airports
Altitude:
(Current/Filed)
25,000ft
Speed:
(Current/Filed)
326kts
Departed: 11-Jul-18 05:35 PM
Arrived: 11-Jul-18 07:04 PM
Distance/Time
Traveled:
416nm/1:29
Distance/Time
To Go:
Arrived

Flight Plot

Page will automatically refresh every two minutes.

Flight plan parsing failed; only flown route is shown


Map Options




Map Legend


Flown Route
Filed Route
Departure Airport
Arrival Airport
Navaid (VOR, NDB)
Fix

Horizontal Profiles

Position Reports

Time Latitude Longitude Heading Altitude Ground
Speed
11-Jul-18 17:15 45.585964 -122.591617 47 37ft 0kts
11-Jul-18 17:16 45.585964 -122.591617 47 37ft 0kts
11-Jul-18 17:17 45.585964 -122.591617 47 37ft 0kts
11-Jul-18 17:18 45.585964 -122.591617 47 37ft 0kts
11-Jul-18 17:19 45.585964 -122.591617 47 37ft 0kts
11-Jul-18 17:20 45.585964 -122.591617 47 37ft 0kts
11-Jul-18 17:21 45.585964 -122.591617 47 37ft 0kts
11-Jul-18 17:22 45.585964 -122.591617 47 37ft 0kts
11-Jul-18 17:23 45.585964 -122.591617 47 37ft 0kts
11-Jul-18 17:24 45.585964 -122.591617 47 37ft 0kts
11-Jul-18 17:25 45.585964 -122.591617 47 37ft 0kts
11-Jul-18 17:26 45.585964 -122.591617 47 37ft 0kts
11-Jul-18 17:27 45.585747 -122.591983 54 37ft 2kts
11-Jul-18 17:28 45.585688 -122.592749 129 37ft 2kts
11-Jul-18 17:29 45.585698 -122.592767 129 37ft 0kts
11-Jul-18 17:30 45.585698 -122.592767 129 37ft 0kts
11-Jul-18 17:31 45.585698 -122.592767 129 37ft 0kts
11-Jul-18 17:32 45.585698 -122.592767 129 37ft 0kts
11-Jul-18 17:33 45.585627 -122.592645 130 37ft 7kts
11-Jul-18 17:34 45.582905 -122.586859 119 37ft 16kts
11-Jul-18 17:35 45.581263 -122.583783 207 37ft 0kts
11-Jul-18 17:36 45.584055 -122.592999 299 38ft 106kts
11-Jul-18 17:37 45.601029 -122.641531 293 2118ft 144kts
11-Jul-18 17:38 45.617265 -122.698086 290 4703ft 150kts
11-Jul-18 17:39 45.637787 -122.758456 299 6754ft 180kts
11-Jul-18 17:40 45.662789 -122.824395 299 8876ft 191kts
11-Jul-18 17:41 45.643693 -122.879813 172 10881ft 204kts
11-Jul-18 17:42 45.590602 -122.839415 148 12296ft 242kts
11-Jul-18 17:43 45.528829 -122.787545 148 13422ft 269kts
11-Jul-18 17:44 45.463534 -122.733143 149 14731ft 277kts
11-Jul-18 17:45 45.397255 -122.678107 149 15875ft 283kts
11-Jul-18 17:46 45.330065 -122.622531 149 16922ft 289kts
11-Jul-18 17:47 45.259128 -122.564082 149 17913ft 295kts
11-Jul-18 17:48 45.187505 -122.505288 149 18788ft 301kts
11-Jul-18 17:49 45.113475 -122.444684 150 19610ft 306kts
11-Jul-18 17:50 45.030950 -122.409986 173 20387ft 307kts
11-Jul-18 17:51 44.943676 -122.389098 171 21073ft 312kts
11-Jul-18 17:52 44.856938 -122.367836 172 21695ft 315kts
11-Jul-18 17:53 44.768487 -122.346026 172 22254ft 319kts
11-Jul-18 17:54 44.678723 -122.323804 172 22763ft 322kts
11-Jul-18 17:55 44.589685 -122.301979 172 23221ft 324kts
11-Jul-18 17:56 44.500696 -122.280100 172 23617ft 327kts
11-Jul-18 17:57 44.410290 -122.258001 172 23963ft 330kts
11-Jul-18 17:58 44.318773 -122.235691 172 24311ft 331kts
11-Jul-18 17:59 44.228448 -122.213767 172 24608ft 332kts
11-Jul-18 18:00 44.137573 -122.191753 172 24894ft 333kts
11-Jul-18 18:01 44.046708 -122.169798 172 25136ft 334kts
11-Jul-18 18:02 43.953970 -122.147529 172 25396ft 334kts
11-Jul-18 18:03 43.860311 -122.125701 173 25186ft 348kts
11-Jul-18 18:04 43.762750 -122.101652 172 25092ft 352kts
11-Jul-18 18:05 43.665789 -122.078626 172 25088ft 352kts
11-Jul-18 18:06 43.568661 -122.055497 172 25086ft 352kts
11-Jul-18 18:07 43.470450 -122.032300 172 25083ft 351kts
11-Jul-18 18:08 43.372456 -122.009164 172 25075ft 351kts
11-Jul-18 18:09 43.275602 -121.986250 172 25068ft 350kts
11-Jul-18 18:10 43.194652 -121.967336 172 25056ft 350kts
11-Jul-18 18:11 43.113203 -121.948343 172 25048ft 346kts
11-Jul-18 18:12 43.017318 -121.925940 172 25046ft 346kts
11-Jul-18 18:13 42.923511 -121.904111 172 25045ft 346kts
11-Jul-18 18:14 42.828261 -121.882065 172 25044ft 345kts
11-Jul-18 18:15 42.733072 -121.860082 172 25038ft 344kts
11-Jul-18 18:16 42.639598 -121.838549 172 25043ft 343kts
11-Jul-18 18:17 42.545914 -121.817014 172 25068ft 341kts
11-Jul-18 18:18 42.450974 -121.795331 172 25073ft 341kts
11-Jul-18 18:19 42.357202 -121.773861 172 25071ft 340kts
11-Jul-18 18:20 42.265076 -121.752979 172 25065ft 338kts
11-Jul-18 18:21 42.173961 -121.732219 172 25073ft 335kts
11-Jul-18 18:22 42.082649 -121.726816 183 25082ft 333kts
11-Jul-18 18:23 41.989836 -121.727200 182 25075ft 334kts
11-Jul-18 18:24 41.897013 -121.726604 182 25063ft 335kts
11-Jul-18 18:25 41.803963 -121.726112 182 25048ft 335kts
11-Jul-18 18:26 41.710016 -121.725657 182 25042ft 335kts
11-Jul-18 18:27 41.615639 -121.725152 182 25035ft 335kts
11-Jul-18 18:28 41.520728 -121.724824 182 25031ft 335kts
11-Jul-18 18:29 41.427713 -121.724258 182 25026ft 335kts
11-Jul-18 18:30 41.333963 -121.723795 182 25025ft 335kts
11-Jul-18 18:31 41.239477 -121.723356 182 25007ft 334kts
11-Jul-18 18:32 41.143580 -121.722933 182 24997ft 333kts
11-Jul-18 18:33 41.049326 -121.722409 182 24985ft 332kts
11-Jul-18 18:34 40.957486 -121.722065 182 24971ft 331kts
11-Jul-18 18:35 40.868556 -121.721528 182 24955ft 331kts
11-Jul-18 18:36 40.777136 -121.721165 182 24941ft 329kts
11-Jul-18 18:37 40.683340 -121.720677 182 24600ft 338kts
11-Jul-18 18:38 40.588180 -121.720189 181 23963ft 330kts
11-Jul-18 18:39 40.496678 -121.719849 181 23877ft 329kts
11-Jul-18 18:40 40.405931 -121.718064 178 23846ft 327kts
11-Jul-18 18:41 40.315155 -121.708839 177 23857ft 325kts
11-Jul-18 18:42 40.225861 -121.701090 178 23862ft 324kts
11-Jul-18 18:43 40.135565 -121.693445 178 22272ft 322kts
11-Jul-18 18:44 40.048647 -121.685985 178 20543ft 306kts
11-Jul-18 18:45 39.964169 -121.678805 177 18867ft 299kts
11-Jul-18 18:46 39.881867 -121.671784 177 17267ft 292kts
11-Jul-18 18:47 39.803971 -121.665213 177 15847ft 283kts
11-Jul-18 18:48 39.726089 -121.656625 175 14250ft 281kts
11-Jul-18 18:49 39.651837 -121.648696 175 12713ft 278kts
11-Jul-18 18:50 39.575832 -121.641328 175 11126ft 275kts
11-Jul-18 18:51 39.501520 -121.634663 175 9558ft 272kts
11-Jul-18 18:52 39.426925 -121.628249 175 7935ft 252kts
11-Jul-18 18:53 39.359865 -121.621988 175 6357ft 250kts
11-Jul-18 18:54 39.292324 -121.615505 175 6021ft 240kts
11-Jul-18 18:55 39.227791 -121.609431 175 6019ft 229kts
11-Jul-18 18:56 39.165242 -121.603552 175 5781ft 234kts
11-Jul-18 18:57 39.100473 -121.596698 175 4306ft 234kts
11-Jul-18 18:58 39.035567 -121.588704 175 3078ft 233kts
11-Jul-18 18:59 38.971744 -121.580700 175 3001ft 236kts
11-Jul-18 19:00 38.906581 -121.576701 181 3014ft 231kts
11-Jul-18 19:01 38.845767 -121.587912 191 2376ft 222kts
11-Jul-18 19:02 38.790401 -121.600309 183 1448ft 176kts
11-Jul-18 19:03 38.748677 -121.600327 178 836ft 138kts
11-Jul-18 19:04 38.712931 -121.600960 179 149ft 124kts
11-Jul-18 19:05 38.695613 -121.600809 156 35ft 14kts
11-Jul-18 19:06 38.691911 -121.597319 52 35ft 14kts
11-Jul-18 19:07 38.692965 -121.594778 182 35ft 3kts
11-Jul-18 19:08 38.692933 -121.594779 182 35ft 0kts
11-Jul-18 19:09 38.692933 -121.594779 182 35ft 0kts
11-Jul-18 19:10 38.692933 -121.594779 182 35ft 0kts

Navigation Log

Ident Type
Flight plan parsing failed, navigation log unavailable